createdAt,value
2023-05-12T00:00:40.347Z,12.8
2023-05-12T00:05:36.942Z,13
2023-05-12T00:10:33.441Z,13
2023-05-12T00:15:29.969Z,12.9
2023-05-12T00:21:40.619Z,12.9
2023-05-12T00:26:37.160Z,13
2023-05-12T00:31:33.739Z,12.8
2023-05-12T00:36:30.256Z,12.7
2023-05-12T00:42:40.938Z,12.6
2023-05-12T00:47:37.653Z,12.7
2023-05-12T00:52:34.033Z,12.7
2023-05-12T00:57:30.483Z,12.6
2023-05-12T01:03:41.232Z,12.6
2023-05-12T01:08:37.714Z,12.5
2023-05-12T01:13:34.233Z,12.6
2023-05-12T01:18:30.833Z,12.6
2023-05-12T01:24:41.436Z,12.6
2023-05-12T01:29:37.971Z,12.6
2023-05-12T01:34:34.498Z,12.5
2023-05-12T01:39:31.022Z,12.7
2023-05-12T01:45:41.681Z,12.7
2023-05-12T01:50:38.380Z,12.7
2023-05-12T01:55:34.746Z,12.7
2023-05-12T02:00:31.250Z,12.9
2023-05-12T02:05:27.866Z,12.6
2023-05-12T02:11:38.510Z,12.6
2023-05-12T02:16:35.079Z,12.4
2023-05-12T02:21:31.646Z,12.6
2023-05-12T02:26:28.123Z,12.7
2023-05-12T02:32:38.814Z,12.7
2023-05-12T02:42:31.794Z,12.5
2023-05-12T02:47:28.403Z,12.4
2023-05-12T02:53:39.036Z,12.4
2023-05-12T02:58:35.691Z,12.6
2023-05-12T03:03:32.249Z,12.6
2023-05-12T03:14:39.308Z,12.6
2023-05-12T03:19:35.916Z,12.7
2023-05-12T03:24:32.591Z,12.6
2023-05-12T03:29:28.874Z,12.6
2023-05-12T03:35:39.567Z,12.4
2023-05-12T03:40:36.291Z,12.3
2023-05-12T03:45:32.920Z,12.1
2023-05-12T03:50:29.257Z,12.1
2023-05-12T03:56:39.882Z,12.2
2023-05-12T04:01:36.629Z,12.3
2023-05-12T04:06:32.948Z,12.2
2023-05-12T04:11:29.434Z,12
2023-05-12T04:17:40.249Z,12.1
2023-05-12T04:22:36.637Z,12.2
2023-05-12T04:27:33.193Z,12.3
2023-05-12T04:32:29.743Z,12.3
2023-05-12T04:38:40.323Z,12.4
2023-05-12T04:48:33.523Z,12.5
2023-05-12T04:53:30.002Z,12.7
2023-05-12T04:59:41.481Z,12.6
2023-05-12T05:04:37.212Z,12.4
2023-05-12T05:09:35.687Z,12.4
2023-05-12T05:14:30.226Z,12.5
2023-05-12T05:20:45.043Z,12.6
2023-05-12T05:25:37.679Z,12.6
2023-05-12T05:30:34.061Z,12.5
2023-05-12T05:35:38.731Z,12.6
2023-05-12T05:40:48.710Z,12.6
2023-05-12T05:45:31.728Z,12.8
2023-05-12T05:50:28.306Z,12.9
2023-05-12T05:56:38.972Z,13.4
2023-05-12T06:01:35.600Z,13.5
2023-05-12T06:06:31.992Z,13.7
2023-05-12T06:07:46.183Z,13.7
2023-05-12T06:17:39.389Z,14.2
2023-05-12T06:22:35.729Z,14.2
2023-05-12T06:27:32.448Z,14.3
2023-05-12T06:32:28.855Z,14.2
2023-05-12T06:38:40.864Z,14.3
2023-05-12T06:43:36.077Z,14.5
2023-05-12T06:48:32.561Z,14.6
2023-05-12T06:53:29.099Z,14.7
2023-05-12T06:59:39.913Z,15.1
2023-05-12T07:04:36.334Z,15.2
2023-05-12T07:09:33.067Z,15.2
2023-05-12T07:14:29.352Z,15.6
2023-05-12T07:20:40.017Z,15.6
2023-05-12T07:25:36.625Z,15.7
2023-05-12T07:30:33.334Z,15.8
2023-05-12T07:41:40.229Z,16.2
2023-05-12T07:46:37.057Z,15.8
2023-05-12T07:51:33.359Z,15.9
2023-05-12T07:56:29.858Z,15.9
2023-05-12T08:02:40.633Z,16.4
2023-05-12T08:07:37.079Z,16.8
2023-05-12T08:12:33.694Z,17
2023-05-12T08:17:30.360Z,17.4
2023-05-12T08:23:40.777Z,17.8
2023-05-12T08:28:37.382Z,18.3
2023-05-12T08:33:33.981Z,18.3
2023-05-12T08:38:30.373Z,17.6
2023-05-12T08:44:41.085Z,18
2023-05-12T08:49:37.834Z,18.7
2023-05-12T08:54:37.827Z,17.7
2023-05-12T08:59:30.613Z,17.7
2023-05-12T09:05:41.388Z,16.4
2023-05-12T09:10:37.897Z,15.6
2023-05-12T09:20:32.127Z,16.3
2023-05-12T09:26:41.650Z,15.1
2023-05-12T09:31:38.146Z,16.1
2023-05-12T09:36:34.696Z,15.6
2023-05-12T09:41:31.401Z,15.2
2023-05-12T09:47:41.987Z,14.6
2023-05-12T09:52:38.380Z,14.1
2023-05-12T09:57:35.111Z,14.4
2023-05-12T10:02:31.608Z,14.6
2023-05-12T10:07:28.014Z,14.2
2023-05-12T10:13:38.718Z,14.8
2023-05-12T10:18:35.272Z,13.3
2023-05-12T10:23:31.784Z,12.2
2023-05-12T10:28:28.277Z,12.3
2023-05-12T10:34:39.032Z,12.2
2023-05-12T10:39:35.479Z,12
2023-05-12T10:44:32.240Z,12.4
2023-05-12T10:49:28.533Z,11.8
2023-05-12T10:55:39.268Z,12.3
2023-05-12T11:00:36.241Z,12
2023-05-12T11:05:32.625Z,12
2023-05-12T11:10:29.258Z,12.5
2023-05-12T11:16:39.671Z,12.7
2023-05-12T11:21:35.978Z,12.4
2023-05-12T11:26:32.591Z,12.9
2023-05-12T11:31:29.113Z,12.7
2023-05-12T11:37:39.741Z,12.9
2023-05-12T11:42:36.249Z,11.7
2023-05-12T11:47:32.904Z,12.1
2023-05-12T11:52:29.304Z,11.9
2023-05-12T11:58:40.066Z,11.7
2023-05-12T12:03:36.612Z,12.3
2023-05-12T12:08:33.103Z,12.1
2023-05-12T12:19:40.281Z,12
2023-05-12T12:24:36.804Z,11.5
2023-05-12T12:29:33.527Z,11.9
2023-05-12T12:34:29.945Z,11.5
2023-05-12T12:40:40.537Z,11.7
2023-05-12T12:45:37.127Z,11.2
2023-05-12T12:50:33.645Z,11.3
2023-05-12T12:55:30.231Z,10.5
2023-05-12T13:00:26.647Z,10.3
2023-05-12T13:06:37.325Z,10.1
2023-05-12T13:11:33.934Z,10.8
2023-05-12T13:16:30.628Z,11
2023-05-12T13:22:41.065Z,10.6
2023-05-12T13:27:37.665Z,10.8
2023-05-12T13:32:34.545Z,10.9
2023-05-12T13:37:30.640Z,11
2023-05-12T13:43:41.328Z,10.5
2023-05-12T13:48:37.886Z,10.1
2023-05-12T13:53:34.389Z,10.4
2023-05-12T13:58:31.166Z,10.3
2023-05-12T14:04:41.607Z,10.3
2023-05-12T14:09:38.110Z,10.3
2023-05-12T14:14:34.711Z,10.4
2023-05-12T14:19:31.455Z,10.2
2023-05-12T14:25:41.905Z,10.9
2023-05-12T14:30:38.479Z,10.8
2023-05-12T14:35:34.921Z,11
2023-05-12T14:40:31.437Z,11.1
2023-05-12T14:45:28.041Z,11.1
2023-05-12T14:51:38.726Z,11.1
2023-05-12T14:56:35.383Z,11.1
2023-05-12T15:01:31.831Z,11.4
2023-05-12T15:06:28.310Z,11.2
2023-05-12T15:12:38.929Z,11.5
2023-05-12T15:22:32.496Z,11.3
2023-05-12T15:27:28.516Z,11.4
2023-05-12T15:33:39.244Z,11.9
2023-05-12T15:38:35.864Z,11.7
2023-05-12T15:43:32.294Z,11.9
2023-05-12T15:48:28.824Z,12.6
2023-05-12T15:54:39.476Z,12
2023-05-12T15:59:36.094Z,11.9
2023-05-12T16:04:32.629Z,12.5
2023-05-12T16:09:29.112Z,12.4
2023-05-12T16:15:39.796Z,12.9
2023-05-12T16:20:36.358Z,12.3
2023-05-12T16:25:32.862Z,12.7
2023-05-12T16:30:29.306Z,13.6
2023-05-12T16:36:40.036Z,13.1
2023-05-12T16:41:36.578Z,12.8
2023-05-12T16:46:33.152Z,12.4
2023-05-12T16:51:29.633Z,12.6
2023-05-12T16:57:42.691Z,12.9
2023-05-12T17:02:36.882Z,13.2
2023-05-12T17:07:33.446Z,13.8
2023-05-12T17:12:29.892Z,14
2023-05-12T17:23:37.067Z,14
2023-05-12T17:28:33.628Z,13.7
2023-05-12T17:33:30.252Z,14.6
2023-05-12T17:39:40.840Z,15.2
2023-05-12T17:44:37.513Z,14.9
2023-05-12T17:49:33.944Z,15.2
2023-05-12T17:54:30.452Z,14.7
2023-05-12T18:00:41.286Z,15.9
2023-05-12T18:05:37.628Z,16.3
2023-05-12T18:10:34.177Z,16.8
2023-05-12T18:15:30.729Z,17.5
2023-05-12T18:21:41.326Z,17.5
2023-05-12T18:26:37.861Z,17.5
2023-05-12T18:31:34.479Z,17.3
2023-05-12T18:36:30.907Z,16.8
2023-05-12T18:42:41.560Z,16.6
2023-05-12T18:47:38.217Z,16.7
2023-05-12T18:52:34.782Z,16.5
2023-05-12T18:57:31.281Z,16.5
2023-05-12T19:03:41.961Z,16.3
2023-05-12T19:08:38.413Z,16.3
2023-05-12T19:13:34.974Z,16.1
2023-05-12T19:18:31.585Z,16.1
2023-05-12T19:23:28.109Z,15.9
2023-05-12T19:29:38.790Z,15.9
2023-05-12T19:34:35.343Z,15.6
2023-05-12T19:39:31.794Z,15.8
2023-05-12T19:45:42.525Z,15.6
2023-05-12T19:50:39.013Z,15.5
2023-05-12T20:00:32.024Z,15.7
2023-05-12T20:05:28.610Z,15.7
2023-05-12T20:11:39.253Z,15.6
2023-05-12T20:16:40.835Z,15.7
2023-05-12T20:21:32.274Z,15.8
2023-05-12T20:26:28.910Z,15.7
2023-05-12T20:32:39.933Z,15.6
2023-05-12T20:37:36.059Z,15.6
2023-05-12T20:42:32.593Z,15.6
2023-05-12T20:47:29.181Z,15.3
2023-05-12T20:53:39.781Z,15.2
2023-05-12T20:58:36.396Z,15.1
2023-05-12T21:03:33.020Z,15
2023-05-12T21:08:29.475Z,15
2023-05-12T21:14:40.228Z,15.1
2023-05-12T21:19:36.602Z,14.9
2023-05-12T21:24:33.308Z,15
2023-05-12T21:29:29.664Z,14.7
2023-05-12T21:35:40.302Z,14.9
2023-05-12T21:40:36.829Z,15
2023-05-12T21:45:33.439Z,15.1
2023-05-12T21:50:30.011Z,14.9
2023-05-12T21:56:40.528Z,14.9
2023-05-12T22:01:37.317Z,14.8
2023-05-12T22:06:33.630Z,14.7
2023-05-12T22:11:30.239Z,14.7
2023-05-12T22:17:40.885Z,14.8
2023-05-12T22:22:37.367Z,14.6
2023-05-12T22:27:34.037Z,14.5
2023-05-12T22:32:30.528Z,14.5
2023-05-12T22:38:41.212Z,14.5
2023-05-12T22:43:37.810Z,14.4
2023-05-12T22:48:38.962Z,14.5
2023-05-12T22:53:30.736Z,14.4
2023-05-12T22:59:41.447Z,14
2023-05-12T23:04:37.866Z,14.2
2023-05-12T23:09:34.473Z,14.1
2023-05-12T23:14:30.979Z,14.2
2023-05-12T23:20:41.655Z,14.3
2023-05-12T23:25:38.152Z,14.3
2023-05-12T23:30:34.707Z,14.1
2023-05-12T23:35:31.200Z,14.4
2023-05-12T23:41:41.988Z,14.5
2023-05-12T23:46:38.528Z,14.5
2023-05-12T23:51:34.984Z,14.2
2023-05-12T23:56:31.422Z,14.3
